aviador You're here:

KOTH Decoded Metar

NORTH BEND in OR, USA
Report Time2017-12-16 02:56:00
UTC Time2017-12-16 03:41:03
Flight Rules vfr VFR
WindCalm
Visibility9656 m
Phenomena:Light Rain
Mist
Clouds:Few 023 Hf
Scattered 037 Hf
Overcast 075 Hf
Ceiling7,500 ft
Temp06°C (ISA -9)
Dew Point06°C (100% RH)
AAT5.1°C
QNH1028 hPa
Density Alt-1,450 ft
Elevation13 ft
Report Wrong Elevation
Raw Report
METAR KOTH 160256Z 00000KT 6SM -RA BR FEW023 SCT037 OVC075 06/06 A3037
RMK AO2 RAB0158 SLP284 P0000 60000 T00610061 53010=

Extra information for KOTH:More info

Metar Taf Metar & Taf Last 4 Metars F.Rules Stats Wind Profile Meteogram Temp Stats Airport Information Weather charts Add Link Nearby VenuesMetar ALERT Operation Metar Decoded Social comments

AIRNAV info for KOTH